Wetterdaten: aktuell Freitag, 08.05.2026 05:00
Datum Zeit Temp. A. Feuchte A. Luftdruck Regen Wind Richtung Richtung Sonnenschein Solar Taupunkt Windchill Windböen
08.05.2026 05:00 4,1 °C 96 % 1015,9 hPa 0,0 l/m² 3,2 km/h NO 45 ° 0 min 0 W/m² 3,5 °C 4,1 °C 4,8 km/h
08.05.2026 04:55 4,1 °C 96 % 1015,9 hPa 0,0 l/m² 3,2 km/h N-NO 22 ° 0 min 0 W/m² 3,5 °C 4,1 °C 6,4 km/h
08.05.2026 04:50 4,1 °C 96 % 1015,9 hPa 0,0 l/m² 3,2 km/h N-NO 22 ° 0 min 0 W/m² 3,5 °C 4,1 °C 6,4 km/h
08.05.2026 04:45 4,1 °C 96 % 1015,9 hPa 0,0 l/m² 3,2 km/h N-NO 22 ° 0 min 0 W/m² 3,5 °C 4,1 °C 6,4 km/h
08.05.2026 04:40 4,2 °C 95 % 1015,8 hPa 0,0 l/m² 3,2 km/h N-NO 22 ° 0 min 0 W/m² 3,5 °C 4,2 °C 4,8 km/h
08.05.2026 04:35 4,2 °C 95 % 1015,8 hPa 0,0 l/m² 3,2 km/h N-NO 22 ° 0 min 0 W/m² 3,5 °C 4,2 °C 6,4 km/h
08.05.2026 04:30 4,3 °C 95 % 1015,7 hPa 0,0 l/m² 3,2 km/h N-NO 22 ° 0 min 0 W/m² 3,6 °C 4,3 °C 4,8 km/h
08.05.2026 04:25 4,3 °C 96 % 1015,7 hPa 0,0 l/m² 3,2 km/h N-NO 22 ° 0 min 0 W/m² 3,7 °C 4,3 °C 6,4 km/h
08.05.2026 04:20 4,4 °C 95 % 1015,7 hPa 0,0 l/m² 3,2 km/h N-NO 22 ° 0 min 0 W/m² 3,7 °C 4,4 °C 6,4 km/h
08.05.2026 04:15 4,5 °C 95 % 1015,6 hPa 0,0 l/m² 3,2 km/h N-NO 22 ° 0 min 0 W/m² 3,8 °C 4,5 °C 4,8 km/h
08.05.2026 04:10 4,6 °C 95 % 1015,6 hPa 0,0 l/m² 3,2 km/h N-NO 22 ° 0 min 0 W/m² 3,9 °C 4,6 °C 4,8 km/h
08.05.2026 04:05 4,6 °C 95 % 1015,6 hPa 0,0 l/m² 3,2 km/h N-NO 22 ° 0 min 0 W/m² 3,9 °C 4,6 °C 6,4 km/h
08.05.2026 04:00 4,7 °C 95 % 1015,7 hPa 0,0 l/m² 3,2 km/h N-NO 22 ° 0 min 0 W/m² 4,0 °C 4,7 °C 4,8 km/h
08.05.2026 03:55 4,8 °C 95 % 1015,7 hPa 0,0 l/m² 1,6 km/h N-NO 22 ° 0 min 0 W/m² 4,1 °C 4,8 °C 3,2 km/h
08.05.2026 03:50 4,8 °C 95 % 1015,7 hPa 0,0 l/m² 1,6 km/h N-NO 22 ° 0 min 0 W/m² 4,1 °C 4,8 °C 3,2 km/h
08.05.2026 03:45 4,8 °C 95 % 1015,6 hPa 0,0 l/m² 1,6 km/h N-NO 22 ° 0 min 0 W/m² 4,1 °C 4,8 °C 3,2 km/h
08.05.2026 03:40 4,8 °C 95 % 1015,7 hPa 0,0 l/m² 1,6 km/h N-NO 22 ° 0 min 0 W/m² 4,1 °C 4,8 °C 4,8 km/h
08.05.2026 03:35 4,8 °C 95 % 1015,6 hPa 0,0 l/m² 3,2 km/h N-NO 22 ° 0 min 0 W/m² 4,1 °C 4,8 °C 6,4 km/h
08.05.2026 03:30 4,8 °C 95 % 1015,7 hPa 0,0 l/m² 3,2 km/h N-NO 22 ° 0 min 0 W/m² 4,1 °C 4,8 °C 4,8 km/h
08.05.2026 03:25 4,9 °C 95 % 1015,7 hPa 0,0 l/m² 3,2 km/h N-NO 22 ° 0 min 0 W/m² 4,2 °C 4,9 °C 4,8 km/h
08.05.2026 03:20 4,9 °C 95 % 1015,7 hPa 0,0 l/m² 4,8 km/h N-NO 22 ° 0 min 0 W/m² 4,2 °C 4,9 °C 6,4 km/h
08.05.2026 03:15 5,0 °C 95 % 1015,7 hPa 0,0 l/m² 1,6 km/h N-NO 22 ° 0 min 0 W/m² 4,3 °C 5,0 °C 4,8 km/h
08.05.2026 03:10 5,0 °C 95 % 1015,8 hPa 0,0 l/m² 1,6 km/h N-NO 22 ° 0 min 0 W/m² 4,3 °C 5,0 °C 4,8 km/h
08.05.2026 03:05 5,1 °C 95 % 1015,8 hPa 0,0 l/m² 3,2 km/h N-NO 22 ° 0 min 0 W/m² 4,4 °C 5,1 °C 4,8 km/h
08.05.2026 03:00 5,1 °C 95 % 1015,8 hPa 0,0 l/m² 3,2 km/h N-NO 22 ° 0 min 0 W/m² 4,4 °C 5,1 °C 4,8 km/h
08.05.2026 02:55 5,2 °C 95 % 1015,8 hPa 0,0 l/m² 3,2 km/h N-NO 22 ° 0 min 0 W/m² 4,5 °C 5,2 °C 4,8 km/h
08.05.2026 02:50 5,3 °C 94 % 1015,8 hPa 0,0 l/m² 1,6 km/h N-NO 22 ° 0 min 0 W/m² 4,4 °C 5,3 °C 3,2 km/h
08.05.2026 02:45 5,3 °C 94 % 1015,8 hPa 0,0 l/m² 3,2 km/h N-NO 22 ° 0 min 0 W/m² 4,4 °C 5,3 °C 4,8 km/h
08.05.2026 02:40 5,3 °C 94 % 1015,8 hPa 0,0 l/m² 3,2 km/h N-NO 22 ° 0 min 0 W/m² 4,4 °C 5,3 °C 4,8 km/h
08.05.2026 02:35 5,4 °C 94 % 1015,8 hPa 0,0 l/m² 3,2 km/h N-NO 22 ° 0 min 0 W/m² 4,5 °C 5,4 °C 4,8 km/h
08.05.2026 02:30 5,4 °C 94 % 1015,8 hPa 0,0 l/m² 1,6 km/h N-NO 22 ° 0 min 0 W/m² 4,5 °C 5,4 °C 3,2 km/h
08.05.2026 02:25 5,6 °C 94 % 1015,8 hPa 0,0 l/m² 3,2 km/h N-NO 22 ° 0 min 0 W/m² 4,7 °C 5,6 °C 4,8 km/h
08.05.2026 02:20 5,6 °C 94 % 1015,8 hPa 0,0 l/m² 1,6 km/h N-NO 22 ° 0 min 0 W/m² 4,7 °C 5,6 °C 4,8 km/h
08.05.2026 02:15 5,6 °C 94 % 1015,9 hPa 0,0 l/m² 3,2 km/h N-NO 22 ° 0 min 0 W/m² 4,7 °C 5,6 °C 4,8 km/h
08.05.2026 02:10 5,7 °C 94 % 1015,9 hPa 0,0 l/m² 3,2 km/h N-NO 22 ° 0 min 0 W/m² 4,8 °C 5,7 °C 6,4 km/h
08.05.2026 02:05 5,7 °C 94 % 1015,9 hPa 0,0 l/m² 3,2 km/h N-NO 22 ° 0 min 0 W/m² 4,8 °C 5,7 °C 4,8 km/h
08.05.2026 02:00 5,8 °C 93 % 1016,0 hPa 0,0 l/m² 3,2 km/h N-NO 22 ° 0 min 0 W/m² 4,8 °C 5,8 °C 4,8 km/h
08.05.2026 01:55 5,8 °C 94 % 1016,1 hPa 0,0 l/m² 3,2 km/h N-NO 22 ° 0 min 0 W/m² 4,9 °C 5,8 °C 6,4 km/h
08.05.2026 01:50 5,9 °C 93 % 1016,1 hPa 0,0 l/m² 3,2 km/h N-NO 22 ° 0 min 0 W/m² 4,9 °C 5,9 °C 4,8 km/h
08.05.2026 01:45 6,0 °C 93 % 1016,2 hPa 0,0 l/m² 3,2 km/h N-NO 22 ° 0 min 0 W/m² 5,0 °C 6,0 °C 4,8 km/h
08.05.2026 01:40 6,1 °C 93 % 1016,3 hPa 0,0 l/m² 1,6 km/h N-NO 22 ° 0 min 0 W/m² 5,1 °C 6,1 °C 4,8 km/h
08.05.2026 01:35 6,2 °C 93 % 1016,3 hPa 0,0 l/m² 1,6 km/h N-NO 22 ° 0 min 0 W/m² 5,2 °C 6,2 °C 3,2 km/h
08.05.2026 01:30 6,3 °C 93 % 1016,3 hPa 0,0 l/m² 1,6 km/h N-NO 22 ° 0 min 0 W/m² 5,3 °C 6,3 °C 3,2 km/h
08.05.2026 01:25 6,4 °C 93 % 1016,2 hPa 0,0 l/m² 1,6 km/h N-NO 22 ° 0 min 0 W/m² 5,4 °C 6,4 °C 3,2 km/h
08.05.2026 01:20 6,4 °C 93 % 1016,2 hPa 0,0 l/m² 3,2 km/h N-NO 22 ° 0 min 0 W/m² 5,4 °C 6,4 °C 4,8 km/h
08.05.2026 01:15 6,5 °C 93 % 1016,2 hPa 0,0 l/m² 1,6 km/h N-NO 22 ° 0 min 0 W/m² 5,5 °C 6,5 °C 4,8 km/h
08.05.2026 01:10 6,6 °C 92 % 1016,2 hPa 0,0 l/m² 1,6 km/h N-NO 22 ° 0 min 0 W/m² 5,4 °C 6,6 °C 3,2 km/h
08.05.2026 01:05 6,7 °C 92 % 1016,2 hPa 0,0 l/m² 3,2 km/h N-NO 22 ° 0 min 0 W/m² 5,5 °C 6,7 °C 4,8 km/h
08.05.2026 01:00 6,7 °C 92 % 1016,2 hPa 0,0 l/m² 3,2 km/h N-NO 22 ° 0 min 0 W/m² 5,5 °C 6,7 °C 4,8 km/h
08.05.2026 00:55 6,8 °C 92 % 1016,2 hPa 0,0 l/m² 3,2 km/h N-NO 22 ° 0 min 0 W/m² 5,6 °C 6,8 °C 4,8 km/h
08.05.2026 00:50 6,9 °C 92 % 1016,2 hPa 0,0 l/m² 3,2 km/h N-NO 22 ° 0 min 0 W/m² 5,7 °C 6,9 °C 4,8 km/h
08.05.2026 00:45 7,1 °C 92 % 1016,2 hPa 0,0 l/m² 3,2 km/h N-NO 22 ° 0 min 0 W/m² 5,9 °C 7,1 °C 4,8 km/h
08.05.2026 00:40 7,2 °C 91 % 1016,2 hPa 0,0 l/m² 3,2 km/h N-NO 22 ° 0 min 0 W/m² 5,8 °C 7,2 °C 4,8 km/h
08.05.2026 00:35 7,3 °C 91 % 1016,3 hPa 0,0 l/m² 1,6 km/h N-NO 22 ° 0 min 0 W/m² 5,9 °C 7,3 °C 3,2 km/h
08.05.2026 00:30 7,4 °C 92 % 1016,3 hPa 0,0 l/m² 0,0 km/h N-NO 22 ° 0 min 0 W/m² 6,2 °C 7,4 °C 3,2 km/h
08.05.2026 00:25 7,5 °C 91 % 1016,2 hPa 0,0 l/m² 0,0 km/h N-NO 22 ° 0 min 0 W/m² 6,1 °C 7,5 °C 1,6 km/h
08.05.2026 00:20 7,5 °C 91 % 1016,3 hPa 0,0 l/m² 1,6 km/h N-NO 22 ° 0 min 0 W/m² 6,1 °C 7,5 °C 4,8 km/h
08.05.2026 00:15 7,6 °C 92 % 1016,3 hPa 0,0 l/m² 3,2 km/h N-NO 22 ° 0 min 0 W/m² 6,4 °C 7,6 °C 6,4 km/h
08.05.2026 00:10 7,7 °C 91 % 1016,3 hPa 0,0 l/m² 1,6 km/h N-NO 22 ° 0 min 0 W/m² 6,3 °C 7,7 °C 4,8 km/h
08.05.2026 00:05 7,8 °C 91 % 1016,3 hPa 0,0 l/m² 1,6 km/h N-NO 22 ° 0 min 0 W/m² 6,4 °C 7,8 °C 3,2 km/h
08.05.2026 00:00 7,8 °C 91 % 1016,3 hPa 0,0 l/m² 1,6 km/h N-NO 22 ° 0 min 0 W/m² 6,4 °C 7,8 °C 3,2 km/h
07.05.2026 23:55 7,8 °C 91 % 1016,3 hPa 0,0 l/m² 1,6 km/h N-NO 22 ° 0 min 0 W/m² 6,4 °C 7,8 °C 3,2 km/h
07.05.2026 23:50 7,9 °C 91 % 1016,2 hPa 0,0 l/m² 3,2 km/h N-NO 22 ° 0 min 0 W/m² 6,5 °C 7,9 °C 4,8 km/h
07.05.2026 23:45 7,9 °C 91 % 1016,2 hPa 0,0 l/m² 3,2 km/h N-NO 22 ° 0 min 0 W/m² 6,5 °C 7,9 °C 8,0 km/h
07.05.2026 23:40 8,0 °C 91 % 1016,3 hPa 0,0 l/m² 3,2 km/h N-NO 22 ° 0 min 0 W/m² 6,6 °C 8,0 °C 6,4 km/h
07.05.2026 23:35 8,1 °C 91 % 1016,2 hPa 0,0 l/m² 4,8 km/h N-NO 22 ° 0 min 0 W/m² 6,7 °C 8,1 °C 8,0 km/h
07.05.2026 23:30 8,1 °C 90 % 1016,1 hPa 0,0 l/m² 3,2 km/h N-NO 22 ° 0 min 0 W/m² 6,6 °C 8,1 °C 6,4 km/h
07.05.2026 23:25 8,1 °C 90 % 1016,0 hPa 0,0 l/m² 3,2 km/h N-NO 22 ° 0 min 0 W/m² 6,6 °C 8,1 °C 6,4 km/h
07.05.2026 23:20 8,2 °C 90 % 1016,1 hPa 0,0 l/m² 3,2 km/h N-NO 22 ° 0 min 0 W/m² 6,7 °C 8,2 °C 4,8 km/h
07.05.2026 23:15 8,3 °C 90 % 1016,1 hPa 0,0 l/m² 1,6 km/h N 360 ° 0 min 0 W/m² 6,8 °C 8,3 °C 4,8 km/h
07.05.2026 23:10 8,4 °C 89 % 1015,9 hPa 0,0 l/m² 3,2 km/h N-NW 337 ° 0 min 0 W/m² 6,7 °C 8,4 °C 6,4 km/h
07.05.2026 23:05 8,5 °C 89 % 1015,9 hPa 0,0 l/m² 3,2 km/h W-NW 292 ° 0 min 0 W/m² 6,8 °C 8,5 °C 4,8 km/h
07.05.2026 23:00 8,7 °C 89 % 1015,9 hPa 0,0 l/m² 3,2 km/h W-NW 292 ° 0 min 0 W/m² 7,0 °C 8,7 °C 4,8 km/h
07.05.2026 22:55 8,8 °C 88 % 1015,9 hPa 0,0 l/m² 3,2 km/h W-NW 292 ° 0 min 0 W/m² 6,9 °C 8,8 °C 4,8 km/h
07.05.2026 22:50 8,9 °C 87 % 1015,8 hPa 0,0 l/m² 1,6 km/h W-NW 292 ° 0 min 0 W/m² 6,9 °C 8,9 °C 3,2 km/h
07.05.2026 22:45 9,1 °C 87 % 1015,8 hPa 0,0 l/m² 0,0 km/h W-NW 292 ° 0 min 0 W/m² 7,1 °C 9,1 °C 3,2 km/h
07.05.2026 22:40 9,2 °C 87 % 1015,8 hPa 0,0 l/m² 1,6 km/h W-NW 292 ° 0 min 0 W/m² 7,2 °C 9,2 °C 3,2 km/h
07.05.2026 22:35 9,3 °C 87 % 1015,7 hPa 0,0 l/m² 1,6 km/h W-NW 292 ° 0 min 0 W/m² 7,2 °C 9,3 °C 3,2 km/h
07.05.2026 22:30 9,4 °C 87 % 1015,6 hPa 0,0 l/m² 0,0 km/h W-NW 292 ° 0 min 0 W/m² 7,3 °C 9,4 °C 3,2 km/h
07.05.2026 22:25 9,5 °C 87 % 1015,5 hPa 0,0 l/m² 0,0 km/h W-NW 292 ° 0 min 0 W/m² 7,4 °C 9,5 °C 1,6 km/h
07.05.2026 22:20 9,6 °C 87 % 1015,3 hPa 0,0 l/m² 1,6 km/h W-NW 292 ° 0 min 0 W/m² 7,5 °C 9,6 °C 3,2 km/h
07.05.2026 22:15 9,6 °C 87 % 1015,3 hPa 0,0 l/m² 3,2 km/h W-NW 292 ° 0 min 0 W/m² 7,5 °C 9,6 °C 4,8 km/h
07.05.2026 22:10 9,7 °C 87 % 1015,2 hPa 0,0 l/m² 3,2 km/h W-NW 292 ° 0 min 0 W/m² 7,6 °C 9,7 °C 6,4 km/h
07.05.2026 22:05 9,8 °C 87 % 1015,3 hPa 0,0 l/m² 0,0 km/h W-NW 292 ° 0 min 0 W/m² 7,7 °C 9,8 °C 3,2 km/h
07.05.2026 22:00 9,8 °C 87 % 1015,3 hPa 0,0 l/m² 1,6 km/h W-NW 292 ° 0 min 0 W/m² 7,7 °C 9,8 °C 4,8 km/h
07.05.2026 21:55 9,8 °C 87 % 1015,3 hPa 0,0 l/m² 3,2 km/h W-NW 292 ° 0 min 0 W/m² 7,7 °C 9,8 °C 4,8 km/h
07.05.2026 21:50 9,9 °C 87 % 1015,2 hPa 0,0 l/m² 1,6 km/h W-NW 292 ° 0 min 0 W/m² 7,8 °C 9,9 °C 4,8 km/h
07.05.2026 21:45 10,0 °C 87 % 1015,2 hPa 0,0 l/m² 0,0 km/h W-NW 292 ° 0 min 0 W/m² 7,9 °C 10,0 °C 1,6 km/h
07.05.2026 21:40 10,1 °C 87 % 1015,2 hPa 0,0 l/m² 1,6 km/h W-NW 292 ° 0 min 0 W/m² 8,0 °C 10,1 °C 3,2 km/h
07.05.2026 21:35 10,1 °C 87 % 1015,2 hPa 0,0 l/m² 3,2 km/h W-NW 292 ° 0 min 0 W/m² 8,0 °C 10,1 °C 3,2 km/h
07.05.2026 21:30 10,2 °C 86 % 1015,3 hPa 0,0 l/m² 3,2 km/h W-NW 292 ° 0 min 0 W/m² 8,0 °C 10,2 °C 3,2 km/h
07.05.2026 21:25 10,3 °C 86 % 1015,2 hPa 0,0 l/m² 3,2 km/h W-NW 292 ° 0 min 0 W/m² 8,1 °C 10,3 °C 3,2 km/h
07.05.2026 21:20 10,4 °C 86 % 1015,1 hPa 0,0 l/m² 3,2 km/h W-NW 292 ° 0 min 0 W/m² 8,2 °C 10,4 °C 4,8 km/h
07.05.2026 21:15 10,4 °C 85 % 1015,1 hPa 0,0 l/m² 3,2 km/h W-NW 292 ° 0 min 0 W/m² 8,0 °C 10,4 °C 4,8 km/h
07.05.2026 21:10 10,5 °C 85 % 1015,0 hPa 0,0 l/m² 3,2 km/h W-NW 292 ° 0 min 0 W/m² 8,1 °C 10,5 °C 4,8 km/h
07.05.2026 21:05 10,6 °C 85 % 1014,9 hPa 0,0 l/m² 3,2 km/h W-NW 292 ° 0 min 0 W/m² 8,2 °C 10,6 °C 3,2 km/h
07.05.2026 21:00 10,7 °C 84 % 1014,8 hPa 0,0 l/m² 3,2 km/h W-NW 292 ° 0 min 0 W/m² 8,1 °C 10,7 °C 3,2 km/h
07.05.2026 20:55 10,7 °C 84 % 1014,7 hPa 0,0 l/m² 3,2 km/h W-NW 292 ° 0 min 0 W/m² 8,1 °C 10,7 °C 4,8 km/h
07.05.2026 20:50 10,8 °C 84 % 1014,7 hPa 0,0 l/m² 3,2 km/h W-NW 292 ° 0 min 0 W/m² 8,2 °C 10,8 °C 6,4 km/h
07.05.2026 20:45 11,0 °C 83 % 1014,7 hPa 0,0 l/m² 3,2 km/h W-NW 292 ° 0 min 0 W/m² 8,2 °C 11,0 °C 3,2 km/h
07.05.2026 20:40 11,1 °C 83 % 1014,6 hPa 0,0 l/m² 3,2 km/h W-NW 292 ° 0 min 5 W/m² 8,3 °C 11,1 °C 6,4 km/h
07.05.2026 20:35 11,2 °C 83 % 1014,6 hPa 0,0 l/m² 3,2 km/h W-NW 292 ° 0 min 7 W/m² 8,4 °C 11,2 °C 6,4 km/h
07.05.2026 20:30 11,3 °C 82 % 1014,6 hPa 0,0 l/m² 1,6 km/h W-NW 292 ° 0 min 11 W/m² 8,3 °C 11,3 °C 3,2 km/h
07.05.2026 20:25 11,4 °C 82 % 1014,5 hPa 0,0 l/m² 3,2 km/h W-NW 292 ° 0 min 14 W/m² 8,4 °C 11,4 °C 4,8 km/h
07.05.2026 20:20 11,4 °C 82 % 1014,4 hPa 0,0 l/m² 3,2 km/h W-NW 292 ° 5 min 14 W/m² 8,4 °C 11,4 °C 6,4 km/h
07.05.2026 20:15 11,6 °C 81 % 1014,4 hPa 0,0 l/m² 3,2 km/h W-NW 292 ° 0 min 18 W/m² 8,5 °C 11,6 °C 6,4 km/h
07.05.2026 20:10 11,7 °C 80 % 1014,4 hPa 0,0 l/m² 3,2 km/h NW 315 ° 0 min 25 W/m² 8,4 °C 11,7 °C 6,4 km/h
07.05.2026 20:05 11,8 °C 80 % 1014,3 hPa 0,0 l/m² 3,2 km/h NW 315 ° 0 min 26 W/m² 8,5 °C 11,8 °C 11,3 km/h
07.05.2026 20:00 11,9 °C 79 % 1014,4 hPa 0,0 l/m² 3,2 km/h W 270 ° 0 min 32 W/m² 8,4 °C 11,9 °C 4,8 km/h
07.05.2026 19:55 12,1 °C 79 % 1014,3 hPa 0,0 l/m² 4,8 km/h W 270 ° 0 min 42 W/m² 8,6 °C 12,1 °C 9,7 km/h
07.05.2026 19:50 12,2 °C 79 % 1014,2 hPa 0,0 l/m² 4,8 km/h W-NW 292 ° 0 min 47 W/m² 8,7 °C 12,2 °C 9,7 km/h
07.05.2026 19:45 12,3 °C 78 % 1014,2 hPa 0,0 l/m² 3,2 km/h W-NW 292 ° 0 min 54 W/m² 8,6 °C 12,3 °C 6,4 km/h
07.05.2026 19:40 12,4 °C 78 % 1014,2 hPa 0,0 l/m² 3,2 km/h W 270 ° 0 min 60 W/m² 8,7 °C 12,4 °C 9,7 km/h
07.05.2026 19:35 12,4 °C 78 % 1014,1 hPa 0,0 l/m² 4,8 km/h W 270 ° 0 min 83 W/m² 8,7 °C 12,4 °C 9,7 km/h
07.05.2026 19:30 12,6 °C 77 % 1014,0 hPa 0,0 l/m² 4,8 km/h W-NW 292 ° 0 min 72 W/m² 8,7 °C 12,6 °C 11,3 km/h
07.05.2026 19:25 12,6 °C 77 % 1013,9 hPa 0,0 l/m² 6,4 km/h W-SW 247 ° 0 min 93 W/m² 8,7 °C 12,6 °C 12,9 km/h
07.05.2026 19:20 12,6 °C 77 % 1013,8 hPa 0,0 l/m² 6,4 km/h W-NW 292 ° 0 min 102 W/m² 8,7 °C 12,6 °C 12,9 km/h
07.05.2026 19:15 12,7 °C 77 % 1013,8 hPa 0,0 l/m² 6,4 km/h W-NW 292 ° 0 min 100 W/m² 8,8 °C 12,7 °C 14,5 km/h
07.05.2026 19:10 12,8 °C 76 % 1013,7 hPa 0,0 l/m² 4,8 km/h W 270 ° 0 min 97 W/m² 8,7 °C 12,8 °C 9,7 km/h
07.05.2026 19:05 12,8 °C 76 % 1013,5 hPa 0,0 l/m² 6,4 km/h W 270 ° 0 min 91 W/m² 8,7 °C 12,8 °C 12,9 km/h
07.05.2026 19:00 12,8 °C 76 % 1013,4 hPa 0,0 l/m² 4,8 km/h W-NW 292 ° 0 min 107 W/m² 8,7 °C 12,8 °C 9,7 km/h
07.05.2026 18:55 12,8 °C 76 % 1013,4 hPa 0,0 l/m² 4,8 km/h W 270 ° 0 min 162 W/m² 8,7 °C 12,8 °C 12,9 km/h
07.05.2026 18:50 12,7 °C 77 % 1013,4 hPa 0,0 l/m² 4,8 km/h NW 315 ° 5 min 202 W/m² 8,8 °C 12,7 °C 9,7 km/h
07.05.2026 18:45 12,4 °C 78 % 1013,5 hPa 0,0 l/m² 4,8 km/h W 270 ° 5 min 216 W/m² 8,7 °C 12,4 °C 9,7 km/h
07.05.2026 18:40 12,3 °C 78 % 1013,5 hPa 0,0 l/m² 6,4 km/h W 270 ° 0 min 135 W/m² 8,6 °C 12,3 °C 16,1 km/h
07.05.2026 18:35 12,3 °C 77 % 1013,6 hPa 0,0 l/m² 9,7 km/h W 270 ° 0 min 95 W/m² 8,4 °C 10,3 °C 17,7 km/h
07.05.2026 18:30 12,4 °C 78 % 1013,6 hPa 0,0 l/m² 8,0 km/h W 270 ° 0 min 98 W/m² 8,7 °C 11,4 °C 14,5 km/h
07.05.2026 18:25 12,4 °C 78 % 1013,6 hPa 0,0 l/m² 9,7 km/h W 270 ° 0 min 102 W/m² 8,7 °C 10,4 °C 14,5 km/h
07.05.2026 18:20 12,5 °C 78 % 1013,6 hPa 0,0 l/m² 8,0 km/h W-NW 292 ° 0 min 102 W/m² 8,8 °C 11,5 °C 14,5 km/h
07.05.2026 18:15 12,5 °C 78 % 1013,6 hPa 0,0 l/m² 8,0 km/h W-NW 292 ° 0 min 123 W/m² 8,8 °C 11,5 °C 19,3 km/h
07.05.2026 18:10 12,4 °C 78 % 1013,6 hPa 0,0 l/m² 8,0 km/h W-NW 292 ° 0 min 148 W/m² 8,7 °C 11,4 °C 14,5 km/h
07.05.2026 18:05 12,4 °C 78 % 1013,5 hPa 0,0 l/m² 6,4 km/h W 270 ° 0 min 141 W/m² 8,7 °C 12,4 °C 14,5 km/h
07.05.2026 18:00 12,4 °C 78 % 1013,5 hPa 0,0 l/m² 6,4 km/h W-SW 247 ° 0 min 105 W/m² 8,7 °C 12,4 °C 14,5 km/h
07.05.2026 17:55 12,4 °C 79 % 1013,6 hPa 0,0 l/m² 9,7 km/h W 270 ° 0 min 84 W/m² 8,9 °C 10,4 °C 17,7 km/h
07.05.2026 17:50 12,4 °C 79 % 1013,5 hPa 0,0 l/m² 6,4 km/h W 270 ° 0 min 104 W/m² 8,9 °C 12,4 °C 11,3 km/h
07.05.2026 17:45 12,4 °C 79 % 1013,4 hPa 0,0 l/m² 8,0 km/h W 270 ° 0 min 144 W/m² 8,9 °C 11,4 °C 14,5 km/h
07.05.2026 17:40 12,4 °C 80 % 1013,3 hPa 0,0 l/m² 8,0 km/h NW 315 ° 0 min 160 W/m² 9,0 °C 11,4 °C 17,7 km/h
07.05.2026 17:35 12,5 °C 79 % 1013,3 hPa 0,0 l/m² 8,0 km/h W-NW 292 ° 0 min 156 W/m² 9,0 °C 11,5 °C 17,7 km/h
07.05.2026 17:30 12,6 °C 80 % 1013,3 hPa 0,0 l/m² 9,7 km/h W-NW 292 ° 0 min 139 W/m² 9,2 °C 10,6 °C 19,3 km/h
07.05.2026 17:25 12,6 °C 80 % 1013,3 hPa 0,0 l/m² 9,7 km/h W 270 ° 0 min 185 W/m² 9,2 °C 10,6 °C 20,9 km/h
07.05.2026 17:20 12,5 °C 81 % 1013,4 hPa 0,0 l/m² 8,0 km/h NW 315 ° 0 min 225 W/m² 9,3 °C 11,5 °C 16,1 km/h
07.05.2026 17:15 12,4 °C 82 % 1013,4 hPa 0,0 l/m² 6,4 km/h W-NW 292 ° 5 min 446 W/m² 9,4 °C 12,4 °C 12,9 km/h
07.05.2026 17:10 12,3 °C 82 % 1013,4 hPa 0,0 l/m² 8,0 km/h W 270 ° 0 min 223 W/m² 9,3 °C 11,3 °C 16,1 km/h
07.05.2026 17:05 12,4 °C 82 % 1013,3 hPa 0,0 l/m² 9,7 km/h W 270 ° 0 min 97 W/m² 9,4 °C 10,4 °C 16,1 km/h
07.05.2026 17:00 12,7 °C 81 % 1013,3 hPa 0,0 l/m² 8,0 km/h W 270 ° 0 min 142 W/m² 9,5 °C 11,7 °C 16,1 km/h
07.05.2026 16:55 12,9 °C 81 % 1013,3 hPa 0,0 l/m² 4,8 km/h W-NW 292 ° 0 min 186 W/m² 9,7 °C 12,9 °C 12,9 km/h
07.05.2026 16:50 13,0 °C 80 % 1013,2 hPa 0,0 l/m² 6,4 km/h W 270 ° 0 min 181 W/m² 9,6 °C 13,0 °C 11,3 km/h
07.05.2026 16:45 13,1 °C 81 % 1013,3 hPa 0,0 l/m² 1,6 km/h W-NW 292 ° 0 min 146 W/m² 9,9 °C 13,1 °C 4,8 km/h
07.05.2026 16:40 13,1 °C 81 % 1013,2 hPa 0,0 l/m² 4,8 km/h W-NW 292 ° 0 min 160 W/m² 9,9 °C 13,1 °C 16,1 km/h
07.05.2026 16:35 13,1 °C 82 % 1013,3 hPa 0,0 l/m² 6,4 km/h W-SW 247 ° 0 min 265 W/m² 10,1 °C 13,1 °C 16,1 km/h
07.05.2026 16:30 13,1 °C 83 % 1013,3 hPa 0,0 l/m² 8,0 km/h W 270 ° 0 min 362 W/m² 10,3 °C 12,1 °C 12,9 km/h
07.05.2026 16:25 13,0 °C 81 % 1013,3 hPa 0,0 l/m² 12,9 km/h W-NW 292 ° 0 min 308 W/m² 9,8 °C 9,6 °C 20,9 km/h
07.05.2026 16:20 12,9 °C 85 % 1013,3 hPa 0,0 l/m² 8,0 km/h W-NW 292 ° 5 min 441 W/m² 10,4 °C 11,9 °C 14,5 km/h
07.05.2026 16:15 12,6 °C 86 % 1013,3 hPa 0,0 l/m² 8,0 km/h W-NW 292 ° 5 min 547 W/m² 10,3 °C 11,6 °C 16,1 km/h
07.05.2026 16:10 12,3 °C 86 % 1013,2 hPa 0,0 l/m² 6,4 km/h W 270 ° 5 min 533 W/m² 10,0 °C 12,3 °C 12,9 km/h
07.05.2026 16:05 12,1 °C 86 % 1013,3 hPa 0,0 l/m² 6,4 km/h W 270 ° 0 min 294 W/m² 9,8 °C 12,1 °C 14,5 km/h
07.05.2026 16:00 11,9 °C 85 % 1013,3 hPa 0,0 l/m² 6,4 km/h W 270 ° 0 min 260 W/m² 9,5 °C 11,9 °C 14,5 km/h
07.05.2026 15:55 11,8 °C 86 % 1013,2 hPa 0,0 l/m² 6,4 km/h W-NW 292 ° 0 min 260 W/m² 9,5 °C 11,8 °C 16,1 km/h
07.05.2026 15:50 11,7 °C 86 % 1013,3 hPa 0,0 l/m² 6,4 km/h W-NW 292 ° 0 min 246 W/m² 9,4 °C 11,7 °C 12,9 km/h
07.05.2026 15:45 11,7 °C 86 % 1013,3 hPa 0,0 l/m² 6,4 km/h W-NW 292 ° 0 min 237 W/m² 9,4 °C 11,7 °C 14,5 km/h
07.05.2026 15:40 11,6 °C 85 % 1013,4 hPa 0,0 l/m² 9,7 km/h W 270 ° 0 min 236 W/m² 9,2 °C 9,5 °C 19,3 km/h
07.05.2026 15:35 11,6 °C 86 % 1013,4 hPa 0,0 l/m² 9,7 km/h W 270 ° 0 min 204 W/m² 9,3 °C 9,5 °C 20,9 km/h
07.05.2026 15:30 11,8 °C 88 % 1013,3 hPa 0,0 l/m² 11,3 km/h W 270 ° 0 min 214 W/m² 9,9 °C 8,9 °C 22,5 km/h
07.05.2026 15:25 11,8 °C 90 % 1013,2 hPa 0,0 l/m² 4,8 km/h W-SW 247 ° 0 min 216 W/m² 10,2 °C 11,8 °C 12,9 km/h
07.05.2026 15:20 11,8 °C 90 % 1013,2 hPa 0,0 l/m² 6,4 km/h W-NW 292 ° 0 min 195 W/m² 10,2 °C 11,8 °C 14,5 km/h
07.05.2026 15:15 11,8 °C 91 % 1013,2 hPa 0,0 l/m² 6,4 km/h W 270 ° 0 min 250 W/m² 10,4 °C 11,8 °C 14,5 km/h
07.05.2026 15:10 11,8 °C 91 % 1013,1 hPa 0,0 l/m² 6,4 km/h W-NW 292 ° 0 min 278 W/m² 10,4 °C 11,8 °C 12,9 km/h
07.05.2026 15:05 11,7 °C 91 % 1013,2 hPa 0,0 l/m² 6,4 km/h W 270 ° 0 min 301 W/m² 10,3 °C 11,7 °C 12,9 km/h
07.05.2026 15:00 11,6 °C 91 % 1013,2 hPa 0,0 l/m² 3,2 km/h NW 315 ° 0 min 267 W/m² 10,2 °C 11,6 °C 8,0 km/h
07.05.2026 14:55 11,4 °C 91 % 1013,2 hPa 0,0 l/m² 3,2 km/h W 270 ° 0 min 193 W/m² 10,0 °C 11,4 °C 6,4 km/h
07.05.2026 14:50 11,4 °C 91 % 1013,2 hPa 0,2 l/m² 4,8 km/h NW 315 ° 0 min 211 W/m² 10,0 °C 11,4 °C 9,7 km/h
07.05.2026 14:45 11,2 °C 90 % 1013,2 hPa 0,0 l/m² 3,2 km/h W-NW 292 ° 0 min 236 W/m² 9,6 °C 11,2 °C 8,0 km/h
07.05.2026 14:40 11,2 °C 89 % 1013,2 hPa 0,0 l/m² 6,4 km/h W-NW 292 ° 0 min 209 W/m² 9,5 °C 11,2 °C 11,3 km/h
07.05.2026 14:35 11,1 °C 88 % 1013,0 hPa 0,0 l/m² 4,8 km/h W-NW 292 ° 0 min 186 W/m² 9,2 °C 11,1 °C 12,9 km/h
07.05.2026 14:30 11,2 °C 87 % 1013,0 hPa 0,0 l/m² 6,4 km/h NW 315 ° 0 min 190 W/m² 9,1 °C 11,2 °C 11,3 km/h
07.05.2026 14:25 11,3 °C 85 % 1013,0 hPa 0,0 l/m² 8,0 km/h W 270 ° 0 min 121 W/m² 8,9 °C 10,2 °C 20,9 km/h
07.05.2026 14:20 11,7 °C 83 % 1013,0 hPa 0,2 l/m² 8,0 km/h W 270 ° 0 min 91 W/m² 8,9 °C 10,6 °C 14,5 km/h
07.05.2026 14:15 12,0 °C 81 % 1013,0 hPa 0,0 l/m² 11,3 km/h W 270 ° 0 min 76 W/m² 8,8 °C 9,1 °C 19,3 km/h
07.05.2026 14:10 12,4 °C 79 % 1012,9 hPa 0,0 l/m² 9,7 km/h W 270 ° 0 min 67 W/m² 8,9 °C 10,4 °C 16,1 km/h
07.05.2026 14:05 12,5 °C 79 % 1012,7 hPa 0,0 l/m² 6,4 km/h W-NW 292 ° 0 min 186 W/m² 9,0 °C 12,5 °C 16,1 km/h
07.05.2026 14:00 12,5 °C 79 % 1012,7 hPa 0,0 l/m² 8,0 km/h W-SW 247 ° 0 min 374 W/m² 9,0 °C 11,5 °C 16,1 km/h
07.05.2026 13:55 12,6 °C 78 % 1012,7 hPa 0,0 l/m² 8,0 km/h W 270 ° 0 min 330 W/m² 8,9 °C 11,6 °C 17,7 km/h
07.05.2026 13:50 12,8 °C 76 % 1012,7 hPa 0,0 l/m² 11,3 km/h W-SW 247 ° 0 min 156 W/m² 8,7 °C 10,1 °C 20,9 km/h
07.05.2026 13:45 13,3 °C 76 % 1012,6 hPa 0,0 l/m² 9,7 km/h SW 225 ° 0 min 104 W/m² 9,2 °C 11,4 °C 22,5 km/h
07.05.2026 13:40 13,7 °C 76 % 1012,4 hPa 0,0 l/m² 6,4 km/h W-NW 292 ° 0 min 60 W/m² 9,5 °C 13,7 °C 16,1 km/h
07.05.2026 13:35 13,8 °C 74 % 1012,3 hPa 0,0 l/m² 4,8 km/h S 180 ° 0 min 98 W/m² 9,2 °C 13,8 °C 12,9 km/h
07.05.2026 13:30 13,9 °C 73 % 1012,2 hPa 0,0 l/m² 8,0 km/h S-SW 202 ° 0 min 162 W/m² 9,1 °C 12,9 °C 17,7 km/h
07.05.2026 13:25 14,2 °C 72 % 1012,2 hPa 0,0 l/m² 8,0 km/h SW 225 ° 0 min 271 W/m² 9,2 °C 13,3 °C 14,5 km/h
07.05.2026 13:20 14,4 °C 72 % 1012,0 hPa 0,0 l/m² 6,4 km/h S-SO 157 ° 0 min 343 W/m² 9,4 °C 14,4 °C 17,7 km/h
07.05.2026 13:15 14,3 °C 74 % 1012,0 hPa 0,0 l/m² 4,8 km/h NW 315 ° 0 min 464 W/m² 9,7 °C 14,3 °C 11,3 km/h
07.05.2026 13:10 14,0 °C 75 % 1012,1 hPa 0,0 l/m² 4,8 km/h SW 225 ° 0 min 341 W/m² 9,6 °C 14,0 °C 12,9 km/h
07.05.2026 13:05 14,2 °C 75 % 1012,1 hPa 0,0 l/m² 4,8 km/h N-NO 22 ° 0 min 290 W/m² 9,8 °C 14,2 °C 14,5 km/h
07.05.2026 13:00 14,3 °C 75 % 1012,1 hPa 0,0 l/m² 4,8 km/h W 270 ° 0 min 394 W/m² 9,9 °C 14,3 °C 16,1 km/h
07.05.2026 12:55 14,3 °C 74 % 1012,1 hPa 0,0 l/m² 3,2 km/h S 180 ° 0 min 385 W/m² 9,7 °C 14,3 °C 12,9 km/h
07.05.2026 12:50 14,3 °C 76 % 1012,1 hPa 0,0 l/m² 4,8 km/h W-SW 247 ° 0 min 345 W/m² 10,1 °C 14,3 °C 9,7 km/h
07.05.2026 12:45 13,9 °C 76 % 1012,2 hPa 0,0 l/m² 3,2 km/h NW 315 ° 0 min 332 W/m² 9,7 °C 13,9 °C 8,0 km/h
07.05.2026 12:40 13,7 °C 78 % 1012,2 hPa 0,0 l/m² 9,7 km/h S 180 ° 0 min 345 W/m² 9,9 °C 11,8 °C 20,9 km/h
07.05.2026 12:35 13,8 °C 77 % 1012,2 hPa 0,0 l/m² 9,7 km/h S 180 ° 0 min 330 W/m² 9,8 °C 11,9 °C 20,9 km/h
07.05.2026 12:30 13,9 °C 77 % 1012,2 hPa 0,0 l/m² 9,7 km/h S-SW 202 ° 0 min 413 W/m² 9,9 °C 12,0 °C 30,6 km/h
07.05.2026 12:25 14,2 °C 76 % 1012,2 hPa 0,0 l/m² 6,4 km/h S-SO 157 ° 0 min 501 W/m² 10,0 °C 14,2 °C 16,1 km/h
07.05.2026 12:20 13,8 °C 78 % 1012,2 hPa 0,0 l/m² 4,8 km/h O 90 ° 0 min 352 W/m² 10,0 °C 13,8 °C 9,7 km/h
07.05.2026 12:15 13,6 °C 77 % 1012,2 hPa 0,0 l/m² 8,0 km/h S-SW 202 ° 0 min 295 W/m² 9,6 °C 12,6 °C 14,5 km/h
07.05.2026 12:10 13,8 °C 78 % 1012,2 hPa 0,0 l/m² 3,2 km/h W 270 ° 0 min 288 W/m² 10,0 °C 13,8 °C 6,4 km/h
07.05.2026 12:05 13,6 °C 78 % 1012,2 hPa 0,0 l/m² 4,8 km/h W 270 ° 0 min 276 W/m² 9,8 °C 13,6 °C 16,1 km/h
07.05.2026 12:00 13,8 °C 77 % 1012,1 hPa 0,0 l/m² 6,4 km/h S 180 ° 0 min 396 W/m² 9,8 °C 13,8 °C 17,7 km/h
07.05.2026 11:55 13,7 °C 79 % 1012,0 hPa 0,0 l/m² 3,2 km/h S 180 ° 0 min 415 W/m² 10,1 °C 13,7 °C 12,9 km/h
07.05.2026 11:50 13,5 °C 78 % 1012,0 hPa 0,0 l/m² 3,2 km/h S 180 ° 0 min 248 W/m² 9,7 °C 13,5 °C 16,1 km/h
07.05.2026 11:45 13,4 °C 79 % 1011,9 hPa 0,0 l/m² 6,4 km/h S 180 ° 0 min 392 W/m² 9,8 °C 13,4 °C 20,9 km/h
07.05.2026 11:40 13,3 °C 80 % 1011,9 hPa 0,0 l/m² 3,2 km/h W-NW 292 ° 0 min 492 W/m² 9,9 °C 13,3 °C 12,9 km/h
07.05.2026 11:35 13,2 °C 79 % 1011,9 hPa 0,0 l/m² 4,8 km/h S-SW 202 ° 0 min 220 W/m² 9,6 °C 13,2 °C 11,3 km/h
07.05.2026 11:30 13,1 °C 80 % 1011,8 hPa 0,0 l/m² 6,4 km/h W 270 ° 0 min 345 W/m² 9,7 °C 13,1 °C 14,5 km/h
07.05.2026 11:25 12,9 °C 80 % 1011,9 hPa 0,0 l/m² 4,8 km/h S-SW 202 ° 0 min 390 W/m² 9,5 °C 12,9 °C 17,7 km/h
07.05.2026 11:20 12,8 °C 80 % 1011,9 hPa 0,0 l/m² 8,0 km/h S-SW 202 ° 0 min 271 W/m² 9,4 °C 11,8 °C 16,1 km/h
07.05.2026 11:15 12,7 °C 80 % 1011,9 hPa 0,0 l/m² 3,2 km/h SW 225 ° 0 min 241 W/m² 9,3 °C 12,7 °C 12,9 km/h
07.05.2026 11:10 12,6 °C 80 % 1011,9 hPa 0,0 l/m² 4,8 km/h S-SW 202 ° 0 min 188 W/m² 9,2 °C 12,6 °C 11,3 km/h
07.05.2026 11:05 12,6 °C 79 % 1011,8 hPa 0,0 l/m² 9,7 km/h S-SW 202 ° 0 min 135 W/m² 9,1 °C 10,6 °C 16,1 km/h
07.05.2026 11:00 12,6 °C 80 % 1011,6 hPa 0,0 l/m² 9,7 km/h S-SW 202 ° 0 min 148 W/m² 9,2 °C 10,6 °C 14,5 km/h
07.05.2026 10:55 12,6 °C 80 % 1011,6 hPa 0,0 l/m² 6,4 km/h S 180 ° 0 min 190 W/m² 9,2 °C 12,6 °C 12,9 km/h
07.05.2026 10:50 12,5 °C 80 % 1011,6 hPa 0,0 l/m² 6,4 km/h S-SW 202 ° 0 min 178 W/m² 9,1 °C 12,5 °C 22,5 km/h
07.05.2026 10:45 12,6 °C 80 % 1011,5 hPa 0,0 l/m² 11,3 km/h S 180 ° 0 min 169 W/m² 9,2 °C 9,8 °C 20,9 km/h
07.05.2026 10:40 12,6 °C 81 % 1011,4 hPa 0,0 l/m² 9,7 km/h S 180 ° 0 min 229 W/m² 9,4 °C 10,6 °C 22,5 km/h
07.05.2026 10:35 12,4 °C 82 % 1011,5 hPa 0,0 l/m² 8,0 km/h S 180 ° 0 min 265 W/m² 9,4 °C 11,4 °C 16,1 km/h
07.05.2026 10:30 12,2 °C 83 % 1011,5 hPa 0,0 l/m² 8,0 km/h S 180 ° 0 min 265 W/m² 9,4 °C 11,2 °C 16,1 km/h
07.05.2026 10:25 12,1 °C 82 % 1011,5 hPa 0,0 l/m² 11,3 km/h S-SW 202 ° 0 min 272 W/m² 9,1 °C 9,3 °C 17,7 km/h
07.05.2026 10:20 11,9 °C 83 % 1011,5 hPa 0,0 l/m² 9,7 km/h S-SW 202 ° 0 min 213 W/m² 9,1 °C 9,9 °C 16,1 km/h
07.05.2026 10:15 11,9 °C 82 % 1011,5 hPa 0,0 l/m² 8,0 km/h S-SW 202 ° 0 min 178 W/m² 8,9 °C 10,8 °C 16,1 km/h
07.05.2026 10:10 11,9 °C 82 % 1011,5 hPa 0,0 l/m² 8,0 km/h S-SW 202 ° 0 min 139 W/m² 8,9 °C 10,8 °C 14,5 km/h
07.05.2026 10:05 12,0 °C 82 % 1011,5 hPa 0,0 l/m² 6,4 km/h S-SW 202 ° 0 min 113 W/m² 9,0 °C 12,0 °C 9,7 km/h
07.05.2026 10:00 12,0 °C 83 % 1011,4 hPa 0,0 l/m² 4,8 km/h S 180 ° 0 min 114 W/m² 9,2 °C 12,0 °C 11,3 km/h
07.05.2026 09:55 12,0 °C 83 % 1011,5 hPa 0,0 l/m² 3,2 km/h S 180 ° 0 min 148 W/m² 9,2 °C 12,0 °C 9,7 km/h
07.05.2026 09:50 11,9 °C 83 % 1011,4 hPa 0,0 l/m² 6,4 km/h S-SW 202 ° 0 min 172 W/m² 9,1 °C 11,9 °C 9,7 km/h
07.05.2026 09:45 11,9 °C 83 % 1011,4 hPa 0,0 l/m² 8,0 km/h S 180 ° 0 min 185 W/m² 9,1 °C 10,8 °C 12,9 km/h
07.05.2026 09:40 11,8 °C 83 % 1011,3 hPa 0,0 l/m² 6,4 km/h S-SW 202 ° 0 min 230 W/m² 9,0 °C 11,8 °C 11,3 km/h
07.05.2026 09:35 11,8 °C 84 % 1011,2 hPa 0,0 l/m² 9,7 km/h S-SW 202 ° 0 min 225 W/m² 9,2 °C 9,7 °C 17,7 km/h
07.05.2026 09:30 11,7 °C 84 % 1011,1 hPa 0,0 l/m² 6,4 km/h S-SW 202 ° 0 min 223 W/m² 9,1 °C 11,7 °C 14,5 km/h
07.05.2026 09:25 11,6 °C 84 % 1011,1 hPa 0,0 l/m² 6,4 km/h S-SW 202 ° 0 min 211 W/m² 9,0 °C 11,6 °C 12,9 km/h
07.05.2026 09:20 11,6 °C 84 % 1011,0 hPa 0,0 l/m² 8,0 km/h S-SW 202 ° 0 min 192 W/m² 9,0 °C 10,5 °C 16,1 km/h
07.05.2026 09:15 11,4 °C 85 % 1010,9 hPa 0,0 l/m² 6,4 km/h S-SO 157 ° 0 min 185 W/m² 9,0 °C 11,4 °C 12,9 km/h
07.05.2026 09:10 11,4 °C 85 % 1011,0 hPa 0,0 l/m² 4,8 km/h S-SW 202 ° 0 min 144 W/m² 9,0 °C 11,4 °C 9,7 km/h
07.05.2026 09:05 11,4 °C 85 % 1010,9 hPa 0,0 l/m² 4,8 km/h W 270 ° 0 min 137 W/m² 9,0 °C 11,4 °C 9,7 km/h
07.05.2026 09:00 11,4 °C 85 % 1010,9 hPa 0,0 l/m² 9,7 km/h S-SW 202 ° 0 min 185 W/m² 9,0 °C 9,3 °C 14,5 km/h
07.05.2026 08:55 11,4 °C 86 % 1010,9 hPa 0,0 l/m² 6,4 km/h S-SW 202 ° 0 min 246 W/m² 9,1 °C 11,4 °C 11,3 km/h
07.05.2026 08:50 11,3 °C 87 % 1010,9 hPa 0,0 l/m² 6,4 km/h S 180 ° 0 min 330 W/m² 9,2 °C 11,3 °C 14,5 km/h
07.05.2026 08:45 11,1 °C 87 % 1010,9 hPa 0,0 l/m² 4,8 km/h S 180 ° 0 min 251 W/m² 9,0 °C 11,1 °C 9,7 km/h
07.05.2026 08:40 11,0 °C 87 % 1010,8 hPa 0,0 l/m² 6,4 km/h S 180 ° 0 min 225 W/m² 8,9 °C 11,0 °C 14,5 km/h
07.05.2026 08:35 10,8 °C 87 % 1010,8 hPa 0,0 l/m² 3,2 km/h S-SW 202 ° 0 min 241 W/m² 8,7 °C 10,8 °C 8,0 km/h
07.05.2026 08:30 10,8 °C 87 % 1010,7 hPa 0,0 l/m² 4,8 km/h S 180 ° 0 min 239 W/m² 8,7 °C 10,8 °C 11,3 km/h
07.05.2026 08:25 10,7 °C 87 % 1010,7 hPa 0,0 l/m² 3,2 km/h W-SW 247 ° 0 min 162 W/m² 8,6 °C 10,7 °C 12,9 km/h
07.05.2026 08:20 10,7 °C 87 % 1010,7 hPa 0,0 l/m² 6,4 km/h S-SW 202 ° 0 min 139 W/m² 8,6 °C 10,7 °C 17,7 km/h
07.05.2026 08:15 10,8 °C 88 % 1010,6 hPa 0,0 l/m² 4,8 km/h SO 135 ° 0 min 142 W/m² 8,9 °C 10,8 °C 17,7 km/h
07.05.2026 08:10 10,7 °C 88 % 1010,7 hPa 0,0 l/m² 1,6 km/h SW 225 ° 0 min 163 W/m² 8,8 °C 10,7 °C 3,2 km/h
07.05.2026 08:05 10,6 °C 89 % 1010,5 hPa 0,0 l/m² 3,2 km/h S 180 ° 0 min 160 W/m² 8,9 °C 10,6 °C 6,4 km/h
07.05.2026 08:00 10,6 °C 89 % 1010,4 hPa 0,0 l/m² 3,2 km/h S 180 ° 0 min 185 W/m² 8,9 °C 10,6 °C 6,4 km/h
07.05.2026 07:55 10,5 °C 89 % 1010,4 hPa 0,0 l/m² 4,8 km/h S-SO 157 ° 0 min 160 W/m² 8,8 °C 10,5 °C 8,0 km/h
07.05.2026 07:50 10,4 °C 89 % 1010,3 hPa 0,0 l/m² 3,2 km/h SW 225 ° 0 min 169 W/m² 8,7 °C 10,4 °C 8,0 km/h
07.05.2026 07:45 10,4 °C 89 % 1010,3 hPa 0,0 l/m² 4,8 km/h S-SO 157 ° 0 min 153 W/m² 8,7 °C 10,4 °C 6,4 km/h
07.05.2026 07:40 10,3 °C 90 % 1010,3 hPa 0,0 l/m² 4,8 km/h S 180 ° 0 min 156 W/m² 8,7 °C 10,3 °C 9,7 km/h
07.05.2026 07:35 10,2 °C 91 % 1010,2 hPa 0,0 l/m² 4,8 km/h S 180 ° 5 min 327 W/m² 8,8 °C 10,2 °C 8,0 km/h
07.05.2026 07:30 10,0 °C 90 % 1010,2 hPa 0,0 l/m² 4,8 km/h SW 225 ° 5 min 272 W/m² 8,4 °C 10,0 °C 8,0 km/h
07.05.2026 07:25 9,8 °C 91 % 1010,2 hPa 0,0 l/m² 6,4 km/h S-SW 202 ° 5 min 190 W/m² 8,4 °C 9,8 °C 9,7 km/h
07.05.2026 07:20 9,7 °C 91 % 1010,2 hPa 0,0 l/m² 4,8 km/h S-SW 202 ° 5 min 193 W/m² 8,3 °C 9,7 °C 8,0 km/h
07.05.2026 07:15 9,6 °C 92 % 1010,0 hPa 0,0 l/m² 3,2 km/h S 180 ° 5 min 167 W/m² 8,4 °C 9,6 °C 6,4 km/h
07.05.2026 07:10 9,5 °C 93 % 1010,0 hPa 0,0 l/m² 3,2 km/h S 180 ° 5 min 156 W/m² 8,4 °C 9,5 °C 8,0 km/h
07.05.2026 07:05 9,3 °C 93 % 1010,0 hPa 0,0 l/m² 3,2 km/h S 180 ° 5 min 146 W/m² 8,2 °C 9,3 °C 8,0 km/h
07.05.2026 07:00 9,1 °C 94 % 1010,0 hPa 0,0 l/m² 1,6 km/h S-SO 157 ° 0 min 135 W/m² 8,2 °C 9,1 °C 6,4 km/h
07.05.2026 06:55 8,8 °C 94 % 1010,0 hPa 0,0 l/m² 1,6 km/h S 180 ° 0 min 118 W/m² 7,9 °C 8,8 °C 6,4 km/h
07.05.2026 06:50 8,6 °C 93 % 1010,0 hPa 0,0 l/m² 0,0 km/h S 180 ° 0 min 102 W/m² 7,5 °C 8,6 °C 3,2 km/h
07.05.2026 06:45 8,4 °C 93 % 1009,9 hPa 0,0 l/m² 0,0 km/h N 0 ° 0 min 83 W/m² 7,3 °C 8,4 °C 0,0 km/h
07.05.2026 06:40 8,3 °C 92 % 1009,8 hPa 0,0 l/m² 0,0 km/h S 180 ° 0 min 77 W/m² 7,1 °C 8,3 °C 1,6 km/h
07.05.2026 06:35 8,3 °C 92 % 1009,9 hPa 0,0 l/m² 0,0 km/h S-SO 157 ° 0 min 65 W/m² 7,1 °C 8,3 °C 1,6 km/h
07.05.2026 06:30 8,3 °C 92 % 1009,9 hPa 0,0 l/m² 0,0 km/h S-SO 157 ° 0 min 23 W/m² 7,1 °C 8,3 °C 3,2 km/h
07.05.2026 06:25 8,4 °C 92 % 1009,8 hPa 0,0 l/m² 0,0 km/h S-SO 157 ° 0 min 19 W/m² 7,2 °C 8,4 °C 3,2 km/h
07.05.2026 06:20 8,4 °C 91 % 1009,7 hPa 0,0 l/m² 0,0 km/h S-SO 157 ° 0 min 19 W/m² 7,0 °C 8,4 °C 3,2 km/h
07.05.2026 06:15 8,6 °C 91 % 1009,7 hPa 0,0 l/m² 1,6 km/h S-SO 157 ° 0 min 16 W/m² 7,2 °C 8,6 °C 3,2 km/h
07.05.2026 06:10 8,6 °C 91 % 1009,6 hPa 0,0 l/m² 0,0 km/h S-SO 157 ° 0 min 12 W/m² 7,2 °C 8,6 °C 1,6 km/h
07.05.2026 06:05 8,7 °C 91 % 1009,7 hPa 0,0 l/m² 1,6 km/h S-SO 157 ° 0 min 12 W/m² 7,3 °C 8,7 °C 6,4 km/h
07.05.2026 06:00 8,8 °C 90 % 1009,5 hPa 0,0 l/m² 3,2 km/h S-SO 157 ° 0 min 9 W/m² 7,3 °C 8,8 °C 6,4 km/h
_ Min-Zeit 04:45 13:20 06:00 - 06:10 - - - - 04:35 04:45 06:45
Minimum _ 4,1 °C 72 % 1009,5 hPa - 0,0 km/h - - - - 3,5 °C 4,1 °C 0,0 km/h
_ Max-Zeit 13:20 04:25 23:40 14:20 16:25 - - 07:05 16:15 16:20 13:20 12:30
Maximum _ 14,5 °C 96 % 1016,3 hPa 0,2 l/m² 12,9 km/h
W-NW
- - 5 min 547 W/m² 10,4 °C 14,4 °C 30,6 km/h
S-SO
Durchschnitt _ 10,1 °C 86 % 1013,2 hPa #0,4 l/m² 4,5 km/h N-NO - #0 min. 0 W/m² 7,8 °C 9,8 °C 9,5 km/h